Time;durP1;ratioP1;P1;durP2;ratioP2;P2;SDS_P1;SDS_P2;PMS_P1;PMS_P2;Temp;Humidity;BMP_temperature;BMP_pressure;BME280_temperature;BME280_humidity;BME280_pressure;Samples;Min_cycle;Max_cycle;Signal;HPM_P1;HPM_P2
2022/09/15 00:01:41;;;;;;;;;2.67;1.00;;;;;;;;5069759;28;45290;-67
2022/09/15 00:04:07;;;;;;;;;1.00;1.00;;;;;;;;5068376;28;45443;-67
2022/09/15 00:06:33;;;;;;;;;1.00;1.00;;;;;;;;5071368;28;46360;-67
2022/09/15 00:08:58;;;;;;;;;0.00;0.00;;;;;;;;5064311;28;45433;-67
2022/09/15 00:11:25;;;;;;;;;1.33;1.00;;;;;;;;5073949;28;45425;-66
2022/09/15 00:13:50;;;;;;;;;1.00;1.00;;;;;;;;5068652;28;45439;-67
2022/09/15 00:16:16;;;;;;;;;1.33;1.33;;;;;;;;5076891;28;46325;-67
2022/09/15 00:18:42;;;;;;;;;2.00;2.00;;;;;;;;5069108;27;45439;-67
2022/09/15 00:21:09;;;;;;;;;3.00;3.00;;;;;;;;5077918;28;45560;-67
2022/09/15 00:23:35;;;;;;;;;2.00;1.33;;;;;;;;5067750;28;45330;-66
2022/09/15 00:26:00;;;;;;;;;3.33;3.33;;;;;;;;5068371;28;46026;-67
2022/09/15 00:28:25;;;;;;;;;1.00;1.00;;;;;;;;5077673;28;45314;-67
2022/09/15 00:30:51;;;;;;;;;4.67;3.00;;;;;;;;5070730;28;45749;-67
2022/09/15 00:33:17;;;;;;;;;6.67;6.00;;;;;;;;5072337;28;45242;-66
2022/09/15 00:35:43;;;;;;;;;5.33;5.33;;;;;;;;5071778;28;47055;-66
2022/09/15 00:38:09;;;;;;;;;2.67;2.67;;;;;;;;5073813;28;46446;-67
2022/09/15 00:40:42;;;;;;;;;4.67;3.33;;;;;;;;5081595;28;45485;-66
2022/09/15 00:43:08;;;;;;;;;6.67;5.00;;;;;;;;5073960;28;45321;-66
2022/09/15 00:45:35;;;;;;;;;5.67;5.00;;;;;;;;5080174;28;45406;-68
2022/09/15 00:48:00;;;;;;;;;5.00;5.00;;;;;;;;5066877;28;45455;-66
2022/09/15 00:50:26;;;;;;;;;8.00;6.00;;;;;;;;5075197;28;45388;-66
2022/09/15 00:52:54;;;;;;;;;11.00;9.67;;;;;;;;5071159;28;45485;-66
2022/09/15 00:55:46;;;;;;;;;7.33;6.00;;;;;;;;5082143;28;46372;-66
2022/09/15 00:58:14;;;;;;;;;9.00;9.00;;;;;;;;5066945;28;45358;-66
2022/09/15 01:00:44;;;;;;;;;7.67;7.00;;;;;;;;5078152;28;45411;-66
2022/09/15 01:03:09;;;;;;;;;6.00;6.00;;;;;;;;5064195;28;45278;-66
2022/09/15 01:05:37;;;;;;;;;5.00;5.00;;;;;;;;5072921;28;46307;-66
2022/09/15 01:08:05;;;;;;;;;6.67;6.00;;;;;;;;5069200;28;45395;-66
2022/09/15 01:10:32;;;;;;;;;8.00;7.33;;;;;;;;5061679;28;45436;-67
2022/09/15 01:12:59;;;;;;;;;6.33;6.33;;;;;;;;5066177;28;45893;-66
2022/09/15 01:15:30;;;;;;;;;8.00;6.33;;;;;;;;5065245;28;46069;-67
2022/09/15 01:18:11;;;;;;;;;6.00;6.00;;;;;;;;5069958;28;45862;-67
2022/09/15 01:20:54;;;;;;;;;5.00;5.00;;;;;;;;5068355;28;45286;-67
2022/09/15 01:23:33;;;;;;;;;5.00;4.00;;;;;;;;5068791;28;45378;-67
2022/09/15 01:26:07;;;;;;;;;4.00;4.00;;;;;;;;5073504;28;45451;-67
2022/09/15 01:28:35;;;;;;;;;4.67;3.33;;;;;;;;5071498;28;45424;-67
2022/09/15 01:31:07;;;;;;;;;4.00;4.00;;;;;;;;5076494;28;45278;-67
2022/09/15 01:33:43;;;;;;;;;4.67;4.00;;;;;;;;5072031;28;45274;-67
2022/09/15 01:36:24;;;;;;;;;4.67;4.67;;;;;;;;5078324;28;46623;-67
2022/09/15 01:38:53;;;;;;;;;2.67;2.67;;;;;;;;5067427;28;45372;-67
2022/09/15 01:41:24;;;;;;;;;4.00;4.00;;;;;;;;5069345;28;45252;-67
2022/09/15 01:43:52;;;;;;;;;4.33;3.00;;;;;;;;5074930;28;45615;-67
2022/09/15 01:46:18;;;;;;;;;6.33;5.00;;;;;;;;5070668;28;46315;-67
2022/09/15 01:48:45;;;;;;;;;3.00;3.00;;;;;;;;5067631;28;45251;-69
2022/09/15 01:51:10;;;;;;;;;3.33;3.33;;;;;;;;5070103;28;45549;-68
2022/09/15 01:53:36;;;;;;;;;6.00;6.00;;;;;;;;5073398;28;45310;-67
2022/09/15 01:56:06;;;;;;;;;3.00;3.00;;;;;;;;5072562;28;46356;-67
2022/09/15 01:58:32;;;;;;;;;4.00;4.00;;;;;;;;5065995;28;45288;-67
2022/09/15 02:01:09;;;;;;;;;7.33;6.00;;;;;;;;5074580;28;45498;-67
2022/09/15 02:03:43;;;;;;;;;4.33;4.33;;;;;;;;5067206;28;45309;-67
2022/09/15 02:06:34;;;;;;;;;5.67;4.67;;;;;;;;5076856;28;45360;-67
2022/09/15 02:09:03;;;;;;;;;11.00;8.00;;;;;;;;5072230;28;45403;-67
2022/09/15 02:11:29;;;;;;;;;5.00;5.00;;;;;;;;5067134;28;45439;-67
2022/09/15 02:14:12;;;;;;;;;9.00;9.00;;;;;;;;5070520;28;45301;-67
2022/09/15 02:16:40;;;;;;;;;13.00;11.00;;;;;;;;5069319;28;46039;-67
2022/09/15 02:19:11;;;;;;;;;11.00;10.00;;;;;;;;5070503;28;45389;-67
2022/09/15 02:21:42;;;;;;;;;13.00;11.67;;;;;;;;5067233;28;45527;-67
2022/09/15 02:24:11;;;;;;;;;13.33;12.33;;;;;;;;5073019;28;45435;-67
2022/09/15 02:26:37;;;;;;;;;16.00;13.00;;;;;;;;5075494;28;46782;-67
2022/09/15 02:29:04;;;;;;;;;16.33;13.33;;;;;;;;5083033;28;45369;-67
2022/09/15 02:31:31;;;;;;;;;18.00;13.33;;;;;;;;5071379;27;45249;-67
2022/09/15 02:34:00;;;;;;;;;14.33;13.33;;;;;;;;5077513;28;45559;-67
2022/09/15 02:36:25;;;;;;;;;14.33;12.33;;;;;;;;5074841;28;45499;-67
2022/09/15 02:39:00;;;;;;;;;15.33;15.00;;;;;;;;5069437;28;45390;-68
2022/09/15 02:41:26;;;;;;;;;17.00;14.33;;;;;;;;5078192;28;45494;-68
2022/09/15 02:43:51;;;;;;;;;22.33;19.33;;;;;;;;5083073;28;46237;-67
2022/09/15 02:46:21;;;;;;;;;15.33;13.33;;;;;;;;5080625;28;46536;-68
2022/09/15 02:48:46;;;;;;;;;21.00;13.67;;;;;;;;5071599;28;45273;-67
2022/09/15 02:51:11;;;;;;;;;19.00;14.00;;;;;;;;5071471;28;45444;-67
2022/09/15 02:53:36;;;;;;;;;21.33;20.00;;;;;;;;5072571;28;45491;-67
2022/09/15 02:56:04;;;;;;;;;16.00;16.00;;;;;;;;5072091;28;46620;-65
2022/09/15 02:58:30;;;;;;;;;19.00;16.67;;;;;;;;5065282;28;45372;-65
2022/09/15 03:00:55;;;;;;;;;16.67;16.67;;;;;;;;5073137;28;45694;-66
2022/09/15 03:03:21;;;;;;;;;13.67;13.67;;;;;;;;5068100;28;45305;-66
2022/09/15 03:05:46;;;;;;;;;16.00;13.67;;;;;;;;5074960;28;46544;-66
2022/09/15 03:08:11;;;;;;;;;12.00;11.33;;;;;;;;5071145;28;45328;-66
2022/09/15 03:10:36;;;;;;;;;12.67;12.00;;;;;;;;5076131;28;45352;-67
2022/09/15 03:13:02;;;;;;;;;12.67;12.00;;;;;;;;5070965;28;45257;-67
2022/09/15 03:15:27;;;;;;;;;10.33;10.33;;;;;;;;5064853;28;45597;-67
2022/09/15 03:17:52;;;;;;;;;13.00;10.67;;;;;;;;5071568;28;45537;-66
2022/09/15 03:20:22;;;;;;;;;9.67;9.67;;;;;;;;5067952;28;45471;-67
2022/09/15 03:22:48;;;;;;;;;13.67;12.67;;;;;;;;5073923;28;45316;-67
2022/09/15 03:25:14;;;;;;;;;17.33;13.67;;;;;;;;5066568;28;45597;-68
2022/09/15 03:27:40;;;;;;;;;13.33;10.33;;;;;;;;5075580;28;45382;-66
2022/09/15 03:30:06;;;;;;;;;12.33;12.33;;;;;;;;5076889;28;45375;-68
2022/09/15 03:32:31;;;;;;;;;14.67;14.67;;;;;;;;5078658;28;45399;-67
2022/09/15 03:34:57;;;;;;;;;11.67;10.67;;;;;;;;5073625;28;45273;-67
2022/09/15 03:37:22;;;;;;;;;16.33;14.33;;;;;;;;5071622;28;45242;-67
2022/09/15 03:39:47;;;;;;;;;12.67;12.67;;;;;;;;5074611;28;45471;-67
2022/09/15 03:42:13;;;;;;;;;13.67;13.67;;;;;;;;5077732;28;45530;-68
2022/09/15 03:44:38;;;;;;;;;17.00;15.33;;;;;;;;5082280;28;46471;-67
2022/09/15 03:47:03;;;;;;;;;14.33;14.00;;;;;;;;5077011;28;45415;-67
2022/09/15 03:49:28;;;;;;;;;17.33;16.33;;;;;;;;5068404;28;45385;-67
2022/09/15 03:51:54;;;;;;;;;18.00;17.00;;;;;;;;5074439;28;45391;-67
2022/09/15 03:54:19;;;;;;;;;24.33;21.33;;;;;;;;5069788;28;46278;-67
2022/09/15 03:56:47;;;;;;;;;21.33;19.00;;;;;;;;5072300;28;45315;-68
2022/09/15 03:59:13;;;;;;;;;17.00;16.33;;;;;;;;5079059;28;45467;-67
2022/09/15 04:01:38;;;;;;;;;33.25;27.50;;;;;;;;5080652;28;45303;-66
2022/09/15 04:04:04;;;;;;;;;19.00;18.67;;;;;;;;5064846;27;45394;-67
2022/09/15 04:06:29;;;;;;;;;27.33;26.67;;;;;;;;5070882;28;45317;-68
2022/09/15 04:08:55;;;;;;;;;23.00;21.00;;;;;;;;5069299;28;45459;-67
2022/09/15 04:11:21;;;;;;;;;25.00;18.67;;;;;;;;5075822;28;45375;-67
2022/09/15 04:13:46;;;;;;;;;29.00;25.00;;;;;;;;5069594;28;45424;-67
2022/09/15 04:16:13;;;;;;;;;20.33;20.00;;;;;;;;5077305;28;45213;-65
2022/09/15 04:18:39;;;;;;;;;21.00;21.00;;;;;;;;5067737;28;45226;-68
2022/09/15 04:21:05;;;;;;;;;19.33;18.00;;;;;;;;5067472;28;45379;-68
2022/09/15 04:23:31;;;;;;;;;21.67;20.67;;;;;;;;5071174;28;45659;-68
2022/09/15 04:25:57;;;;;;;;;27.67;21.67;;;;;;;;5070143;28;45326;-68
2022/09/15 04:28:26;;;;;;;;;19.67;18.00;;;;;;;;5077959;28;45539;-65
2022/09/15 04:30:52;;;;;;;;;20.00;18.00;;;;;;;;5074018;28;45302;-66
2022/09/15 04:33:17;;;;;;;;;24.00;23.00;;;;;;;;5071186;28;47685;-66
2022/09/15 04:35:43;;;;;;;;;20.33;20.00;;;;;;;;5076488;28;45342;-67
2022/09/15 04:38:08;;;;;;;;;20.33;18.67;;;;;;;;5065101;28;45305;-67
2022/09/15 04:40:33;;;;;;;;;16.67;14.67;;;;;;;;5080740;28;45503;-68
2022/09/15 04:42:58;;;;;;;;;18.00;17.67;;;;;;;;5076797;28;45343;-67
2022/09/15 04:45:23;;;;;;;;;23.00;20.67;;;;;;;;5079082;28;45291;-66
2022/09/15 04:47:50;;;;;;;;;23.50;23.25;;;;;;;;5067280;28;45648;-67
2022/09/15 04:50:15;;;;;;;;;22.67;21.33;;;;;;;;5079912;28;45439;-66
2022/09/15 04:52:40;;;;;;;;;20.00;18.67;;;;;;;;5070841;28;45581;-66
2022/09/15 04:55:06;;;;;;;;;19.00;19.00;;;;;;;;5075538;28;45479;-67
2022/09/15 04:57:32;;;;;;;;;19.33;16.00;;;;;;;;5067248;28;45980;-67
2022/09/15 04:59:57;;;;;;;;;20.33;18.00;;;;;;;;5065566;28;45472;-67
2022/09/15 05:02:22;;;;;;;;;16.33;15.00;;;;;;;;5063409;28;45486;-67
2022/09/15 05:04:48;;;;;;;;;16.33;16.33;;;;;;;;5067528;28;45396;-66
2022/09/15 05:07:14;;;;;;;;;22.25;19.00;;;;;;;;5062290;28;45294;-67
2022/09/15 05:09:39;;;;;;;;;16.00;14.67;;;;;;;;5068998;28;45437;-66
2022/09/15 05:12:04;;;;;;;;;20.67;16.67;;;;;;;;5065532;28;46181;-69
2022/09/15 05:14:30;;;;;;;;;20.67;19.00;;;;;;;;5075171;28;45389;-68
2022/09/15 05:16:55;;;;;;;;;22.33;19.33;;;;;;;;5067396;28;45405;-67
2022/09/15 05:19:21;;;;;;;;;20.33;20.33;;;;;;;;5069214;28;45597;-67
2022/09/15 05:21:46;;;;;;;;;20.33;19.00;;;;;;;;5071651;28;45419;-66
2022/09/15 05:24:11;;;;;;;;;21.00;20.67;;;;;;;;5072157;28;45381;-67
2022/09/15 05:26:36;;;;;;;;;23.75;20.25;;;;;;;;5075790;28;45300;-67
2022/09/15 05:29:01;;;;;;;;;20.67;19.33;;;;;;;;5066307;28;45936;-68
2022/09/15 05:31:29;;;;;;;;;17.00;16.00;;;;;;;;5066715;28;46355;-66
2022/09/15 05:33:54;;;;;;;;;25.67;23.33;;;;;;;;5068780;28;45315;-68
2022/09/15 05:36:23;;;;;;;;;20.50;20.50;;;;;;;;5069585;28;45394;-66
2022/09/15 05:38:49;;;;;;;;;21.33;20.00;;;;;;;;5070189;28;45436;-67
2022/09/15 05:41:15;;;;;;;;;22.33;17.33;;;;;;;;5070138;28;46867;-67
2022/09/15 05:43:41;;;;;;;;;21.33;21.33;;;;;;;;5074211;28;45438;-66
2022/09/15 05:46:06;;;;;;;;;22.33;18.67;;;;;;;;5072662;28;45304;-69
2022/09/15 05:48:32;;;;;;;;;14.00;14.00;;;;;;;;5078285;28;45596;-68
2022/09/15 05:50:57;;;;;;;;;19.50;19.00;;;;;;;;5075731;28;47852;-68
2022/09/15 05:53:23;;;;;;;;;22.25;19.25;;;;;;;;5063311;28;45734;-67
2022/09/15 05:55:52;;;;;;;;;24.00;21.00;;;;;;;;5074734;28;45194;-67
2022/09/15 05:58:18;;;;;;;;;24.67;23.33;;;;;;;;5065468;28;46636;-67
2022/09/15 06:00:43;;;;;;;;;20.33;20.33;;;;;;;;5061976;28;47228;-67
2022/09/15 06:03:13;;;;;;;;;24.00;22.00;;;;;;;;5065068;28;45384;-67
2022/09/15 06:05:38;;;;;;;;;28.75;24.50;;;;;;;;5066277;28;45154;-67
2022/09/15 06:08:03;;;;;;;;;25.50;24.75;;;;;;;;5066863;28;45190;-67
2022/09/15 06:10:28;;;;;;;;;28.50;26.25;;;;;;;;5066517;28;47532;-67
2022/09/15 06:12:55;;;;;;;;;29.75;27.00;;;;;;;;5070332;28;45413;-67
2022/09/15 06:15:21;;;;;;;;;28.75;28.00;;;;;;;;5095761;27;45409;-68
2022/09/15 06:17:46;;;;;;;;;30.00;27.75;;;;;;;;5072140;28;45488;-67
2022/09/15 06:20:12;;;;;;;;;27.50;27.00;;;;;;;;5071230;28;45653;-68
2022/09/15 06:22:37;;;;;;;;;35.25;32.00;;;;;;;;5073169;28;45837;-68
2022/09/15 06:25:03;;;;;;;;;21.67;19.67;;;;;;;;5073863;28;45363;-67
2022/09/15 06:27:28;;;;;;;;;30.00;22.75;;;;;;;;5072947;28;45402;-68
2022/09/15 06:29:53;;;;;;;;;35.25;30.75;;;;;;;;5079977;28;46675;-68
2022/09/15 06:32:18;;;;;;;;;29.75;29.25;;;;;;;;5069996;28;45441;-67
2022/09/15 06:34:44;;;;;;;;;30.25;25.75;;;;;;;;5074336;28;45244;-67
2022/09/15 06:37:10;;;;;;;;;30.00;27.50;;;;;;;;5069188;27;45432;-68
2022/09/15 06:39:36;;;;;;;;;28.50;25.00;;;;;;;;5077547;28;45559;-68
2022/09/15 06:42:01;;;;;;;;;28.50;27.75;;;;;;;;5076526;28;45380;-67
2022/09/15 06:44:26;;;;;;;;;29.50;26.50;;;;;;;;5074321;28;45415;-67
2022/09/15 06:46:51;;;;;;;;;27.25;22.00;;;;;;;;5076993;28;45757;-68
2022/09/15 06:49:17;;;;;;;;;31.50;27.75;;;;;;;;5074081;28;45373;-68
2022/09/15 06:51:42;;;;;;;;;31.50;28.50;;;;;;;;5076440;28;45376;-68
2022/09/15 06:54:07;;;;;;;;;24.00;24.00;;;;;;;;5070221;28;45422;-68
2022/09/15 06:56:32;;;;;;;;;26.67;24.67;;;;;;;;5074181;28;45265;-66
2022/09/15 06:58:58;;;;;;;;;32.75;30.00;;;;;;;;5064156;28;45302;-68
2022/09/15 07:01:25;;;;;;;;;31.75;28.50;;;;;;;;5066773;28;45223;-68
2022/09/15 07:03:51;;;;;;;;;32.75;30.25;;;;;;;;5066734;27;45289;-68
2022/09/15 07:06:16;;;;;;;;;32.50;29.50;;;;;;;;5070769;28;45457;-67
2022/09/15 07:08:42;;;;;;;;;33.75;30.00;;;;;;;;5066802;28;46811;-68
2022/09/15 07:11:08;;;;;;;;;29.00;29.00;;;;;;;;5072711;28;45380;-68
2022/09/15 07:13:33;;;;;;;;;37.00;32.75;;;;;;;;5068109;28;45433;-67
2022/09/15 07:16:00;;;;;;;;;33.25;27.75;;;;;;;;5075023;28;45536;-67
2022/09/15 07:18:26;;;;;;;;;35.50;30.25;;;;;;;;5072449;28;47287;-66
2022/09/15 07:20:52;;;;;;;;;33.25;25.75;;;;;;;;5075253;28;45392;-66
2022/09/15 07:23:18;;;;;;;;;25.67;25.00;;;;;;;;5071749;28;45326;-67
2022/09/15 07:25:43;;;;;;;;;35.00;31.25;;;;;;;;5076070;28;45267;-67
2022/09/15 07:28:13;;;;;;;;;28.50;26.00;;;;;;;;5069315;28;45383;-68
2022/09/15 07:30:38;;;;;;;;;28.50;27.25;;;;;;;;5067326;28;45408;-67
2022/09/15 07:33:04;;;;;;;;;32.50;30.00;;;;;;;;5066253;28;45388;-68
2022/09/15 07:35:29;;;;;;;;;27.00;24.67;;;;;;;;5070935;28;45475;-68
2022/09/15 07:37:54;;;;;;;;;32.25;27.50;;;;;;;;5067284;28;45442;-68
2022/09/15 07:40:20;;;;;;;;;35.00;26.50;;;;;;;;5071417;28;45248;-68
2022/09/15 07:42:45;;;;;;;;;26.33;21.67;;;;;;;;5072700;28;45320;-68
2022/09/15 07:45:11;;;;;;;;;28.75;28.75;;;;;;;;5073241;28;45328;-67
2022/09/15 07:47:36;;;;;;;;;25.33;24.00;;;;;;;;5071454;28;46320;-68
2022/09/15 07:50:01;;;;;;;;;27.67;20.33;;;;;;;;5075307;28;45374;-67
2022/09/15 07:52:27;;;;;;;;;25.00;23.67;;;;;;;;5067424;28;45209;-67
2022/09/15 07:54:52;;;;;;;;;27.33;23.33;;;;;;;;5077808;28;45304;-68
2022/09/15 07:57:17;;;;;;;;;28.00;23.75;;;;;;;;5070780;28;45512;-67
2022/09/15 07:59:42;;;;;;;;;40.50;33.00;;;;;;;;5063546;28;45205;-66
2022/09/15 08:02:13;;;;;;;;;26.67;23.00;;;;;;;;5063226;28;45494;-67
2022/09/15 08:04:39;;;;;;;;;24.33;19.33;;;;;;;;5066265;28;45368;-68
2022/09/15 08:07:04;;;;;;;;;23.67;18.67;;;;;;;;5062470;28;46222;-68
2022/09/15 08:09:29;;;;;;;;;26.50;23.50;;;;;;;;5075645;28;45395;-67
2022/09/15 08:11:55;;;;;;;;;28.25;25.75;;;;;;;;5063702;28;45361;-67
2022/09/15 08:14:20;;;;;;;;;20.00;18.67;;;;;;;;5067121;28;45513;-68
2022/09/15 08:16:45;;;;;;;;;18.67;17.00;;;;;;;;5068597;28;45737;-67
2022/09/15 08:19:11;;;;;;;;;17.33;16.33;;;;;;;;5069116;28;45238;-67
2022/09/15 08:21:36;;;;;;;;;14.33;14.33;;;;;;;;5072724;27;45419;-67
2022/09/15 08:24:01;;;;;;;;;21.00;17.50;;;;;;;;5072001;28;45750;-67
2022/09/15 08:26:27;;;;;;;;;17.33;14.67;;;;;;;;5075598;27;45577;-67
2022/09/15 08:28:52;;;;;;;;;16.00;14.00;;;;;;;;5076342;28;45333;-67
2022/09/15 08:31:18;;;;;;;;;21.33;20.33;;;;;;;;5078323;28;45259;-67
2022/09/15 08:33:50;;;;;;;;;14.67;12.00;;;;;;;;5062087;28;45756;-68
2022/09/15 08:36:15;;;;;;;;;18.25;15.25;;;;;;;;5065140;28;45545;-68
2022/09/15 08:38:43;;;;;;;;;12.67;11.00;;;;;;;;5065865;28;45238;-67
2022/09/15 08:41:28;;;;;;;;;12.00;8.67;;;;;;;;5065819;28;45639;-67
2022/09/15 08:43:57;;;;;;;;;11.00;10.00;;;;;;;;5068177;28;45508;-67
2022/09/15 08:46:26;;;;;;;;;14.00;11.33;;;;;;;;5067576;28;46929;-67
2022/09/15 08:48:59;;;;;;;;;12.00;11.00;;;;;;;;5067841;28;45325;-67
2022/09/15 08:51:28;;;;;;;;;13.00;13.00;;;;;;;;5071478;28;45792;-67
2022/09/15 08:54:06;;;;;;;;;9.00;9.00;;;;;;;;5069439;28;45265;-67
2022/09/15 08:56:32;;;;;;;;;10.00;10.00;;;;;;;;5074953;28;45521;-67
2022/09/15 08:58:57;;;;;;;;;9.33;8.00;;;;;;;;5061916;28;45375;-67
2022/09/15 09:01:22;;;;;;;;;7.67;7.33;;;;;;;;5062428;28;45363;-67
2022/09/15 09:04:00;;;;;;;;;8.00;6.00;;;;;;;;5063524;28;45655;-67
2022/09/15 09:06:31;;;;;;;;;7.00;6.00;;;;;;;;5066504;28;48354;-67
2022/09/15 09:09:00;;;;;;;;;5.00;5.00;;;;;;;;5067640;28;45420;-67
2022/09/15 09:11:25;;;;;;;;;5.00;5.00;;;;;;;;5070729;28;45521;-68
2022/09/15 09:13:58;;;;;;;;;6.00;6.00;;;;;;;;5068816;28;45960;-68
2022/09/15 09:16:29;;;;;;;;;5.67;5.67;;;;;;;;5073494;28;45935;-68
2022/09/15 09:19:04;;;;;;;;;5.67;5.67;;;;;;;;5079812;28;45325;-68
2022/09/15 09:21:32;;;;;;;;;10.67;9.33;;;;;;;;5071345;28;45334;-67
2022/09/15 09:24:24;;;;;;;;;6.67;4.67;;;;;;;;5005388;27;45403;-67
2022/09/15 09:26:53;;;;;;;;;11.33;9.33;;;;;;;;5017785;28;46991;-68
2022/09/15 09:29:22;;;;;;;;;9.33;8.33;;;;;;;;5017148;28;45429;-71
2022/09/15 09:31:49;;;;;;;;;6.67;6.67;;;;;;;;5039849;28;45415;-67
2022/09/15 09:34:20;;;;;;;;;9.00;6.67;;;;;;;;5035590;28;45514;-68
2022/09/15 09:36:51;;;;;;;;;6.67;6.67;;;;;;;;5040911;28;45600;-68
2022/09/15 09:39:16;;;;;;;;;8.00;5.33;;;;;;;;5014960;28;45416;-68
2022/09/15 09:41:43;;;;;;;;;9.00;5.00;;;;;;;;5040345;28;45699;-68
2022/09/15 09:44:12;;;;;;;;;7.33;6.33;;;;;;;;5038241;28;45490;-68
2022/09/15 09:46:38;;;;;;;;;7.00;5.33;;;;;;;;5040901;28;46215;-68
2022/09/15 09:49:15;;;;;;;;;6.67;4.00;;;;;;;;5038974;28;45386;-68
2022/09/15 09:51:47;;;;;;;;;3.00;3.00;;;;;;;;5040441;28;45444;-67
2022/09/15 09:54:15;;;;;;;;;6.00;3.33;;;;;;;;5044533;28;45240;-67
2022/09/15 09:56:41;;;;;;;;;5.67;4.33;;;;;;;;5041758;28;45432;-67
2022/09/15 09:59:26;;;;;;;;;4.00;4.00;;;;;;;;5041260;28;45401;-67
2022/09/15 10:02:12;;;;;;;;;3.00;3.00;;;;;;;;5042275;28;45458;-67
2022/09/15 10:04:41;;;;;;;;;6.00;5.00;;;;;;;;5021592;28;45357;-67
2022/09/15 10:07:07;;;;;;;;;5.67;5.67;;;;;;;;5056884;28;47879;-67
2022/09/15 10:09:32;;;;;;;;;2.33;2.33;;;;;;;;5044343;28;45354;-67
2022/09/15 10:11:59;;;;;;;;;5.00;1.00;;;;;;;;5041036;28;45362;-67
2022/09/15 10:14:30;;;;;;;;;6.33;5.00;;;;;;;;5044390;28;45423;-67
2022/09/15 10:17:04;;;;;;;;;3.00;3.00;;;;;;;;5039880;28;45405;-68
2022/09/15 10:19:31;;;;;;;;;3.00;3.00;;;;;;;;5042147;28;45389;-67
2022/09/15 10:21:57;;;;;;;;;5.33;5.00;;;;;;;;5040304;28;45255;-68
2022/09/15 10:24:33;;;;;;;;;2.00;2.00;;;;;;;;5044409;28;45308;-68
2022/09/15 10:27:16;;;;;;;;;10.00;7.00;;;;;;;;5038420;28;45774;-68
2022/09/15 10:29:42;;;;;;;;;4.00;4.00;;;;;;;;5027325;28;45269;-68
2022/09/15 10:32:15;;;;;;;;;5.00;3.33;;;;;;;;5037897;28;45418;-68
2022/09/15 10:34:40;;;;;;;;;4.00;3.33;;;;;;;;5040826;28;45458;-67
2022/09/15 10:37:12;;;;;;;;;7.67;6.67;;;;;;;;5038902;28;45437;-68
2022/09/15 10:39:40;;;;;;;;;5.67;4.67;;;;;;;;5043322;28;45484;-68
2022/09/15 10:42:31;;;;;;;;;4.67;3.67;;;;;;;;5038203;28;45387;-68
2022/09/15 10:44:56;;;;;;;;;5.67;4.00;;;;;;;;5015622;28;45445;-66
2022/09/15 10:47:21;;;;;;;;;4.67;4.67;;;;;;;;5039760;28;46248;-68
2022/09/15 10:49:53;;;;;;;;;3.00;3.00;;;;;;;;5043355;28;45402;-68
2022/09/15 10:52:25;;;;;;;;;4.00;3.00;;;;;;;;5038234;28;45541;-69
2022/09/15 10:54:56;;;;;;;;;6.33;4.33;;;;;;;;5022079;28;45327;-68
2022/09/15 10:57:21;;;;;;;;;6.00;6.00;;;;;;;;5037851;28;45371;-69
2022/09/15 10:59:59;;;;;;;;;6.67;5.00;;;;;;;;5040042;28;45363;-69
2022/09/15 11:02:28;;;;;;;;;4.00;4.00;;;;;;;;5052683;28;45830;-67
2022/09/15 11:05:04;;;;;;;;;3.00;3.00;;;;;;;;5024808;28;45683;-68
2022/09/15 11:07:41;;;;;;;;;5.00;5.00;;;;;;;;5051135;28;48458;-69
2022/09/15 11:10:25;;;;;;;;;8.00;4.67;;;;;;;;5042802;28;45391;-68
2022/09/15 11:13:05;;;;;;;;;6.67;6.00;;;;;;;;5040463;28;45423;-68
2022/09/15 11:15:34;;;;;;;;;3.33;3.33;;;;;;;;5036717;28;45592;-68
2022/09/15 11:17:59;;;;;;;;;4.00;4.00;;;;;;;;5039635;28;45406;-68
2022/09/15 11:20:25;;;;;;;;;4.33;4.33;;;;;;;;5042399;28;45402;-68
2022/09/15 11:22:54;;;;;;;;;10.00;8.00;;;;;;;;5038934;28;45346;-67
2022/09/15 11:25:21;;;;;;;;;4.33;4.33;;;;;;;;5043118;28;45558;-68
2022/09/15 11:27:52;;;;;;;;;4.33;4.33;;;;;;;;5037174;28;45344;-67
2022/09/15 11:30:22;;;;;;;;;4.00;4.00;;;;;;;;5041841;28;45372;-68
2022/09/15 11:32:53;;;;;;;;;10.00;10.00;;;;;;;;5036290;28;45441;-68
2022/09/15 11:35:37;;;;;;;;;5.33;5.33;;;;;;;;5019760;28;45398;-68
2022/09/15 11:38:21;;;;;;;;;4.33;4.33;;;;;;;;5036753;28;45434;-68
2022/09/15 11:40:51;;;;;;;;;4.67;4.67;;;;;;;;5040831;28;45463;-68
2022/09/15 11:43:20;;;;;;;;;7.00;7.00;;;;;;;;5014094;28;45480;-68
2022/09/15 11:45:52;;;;;;;;;5.67;3.67;;;;;;;;5043505;28;45220;-68
2022/09/15 11:48:33;;;;;;;;;5.00;5.00;;;;;;;;5035080;28;46321;-67
2022/09/15 11:51:00;;;;;;;;;4.33;4.33;;;;;;;;5041722;28;45414;-68
2022/09/15 11:53:26;;;;;;;;;4.00;4.00;;;;;;;;5036196;28;45539;-68
2022/09/15 11:56:08;;;;;;;;;5.33;5.00;;;;;;;;5042881;28;45322;-68
2022/09/15 11:58:41;;;;;;;;;4.00;4.00;;;;;;;;5034144;28;45580;-68
2022/09/15 12:01:12;;;;;;;;;3.00;3.00;;;;;;;;5041462;28;45537;-69
2022/09/15 12:03:43;;;;;;;;;3.67;3.00;;;;;;;;5037203;28;45223;-68
2022/09/15 12:06:13;;;;;;;;;3.67;3.67;;;;;;;;5041273;28;45279;-68
2022/09/15 12:08:45;;;;;;;;;4.67;4.67;;;;;;;;5037622;28;45434;-67
2022/09/15 12:11:17;;;;;;;;;4.00;4.00;;;;;;;;5040051;28;45422;-68
2022/09/15 12:13:42;;;;;;;;;4.00;4.00;;;;;;;;5020344;28;45489;-68
2022/09/15 12:16:09;;;;;;;;;3.67;3.67;;;;;;;;5039348;28;45444;-68
2022/09/15 12:18:47;;;;;;;;;3.33;3.33;;;;;;;;5041038;28;45627;-69
2022/09/15 12:21:32;;;;;;;;;5.00;4.33;;;;;;;;5040523;28;45423;-68
2022/09/15 12:24:01;;;;;;;;;4.33;4.00;;;;;;;;5042485;28;45537;-68
2022/09/15 12:26:27;;;;;;;;;4.00;4.00;;;;;;;;5040151;28;45326;-68
2022/09/15 12:28:53;;;;;;;;;4.33;3.00;;;;;;;;5040489;28;46097;-68
2022/09/15 12:31:22;;;;;;;;;8.00;5.00;;;;;;;;5022039;28;45755;-68
2022/09/15 12:34:05;;;;;;;;;6.00;5.33;;;;;;;;5036267;28;45277;-68
2022/09/15 12:36:33;;;;;;;;;5.67;5.00;;;;;;;;5039420;28;45526;-68
2022/09/15 12:38:58;;;;;;;;;4.00;4.00;;;;;;;;5039351;28;46285;-68
2022/09/15 12:41:24;;;;;;;;;5.00;5.00;;;;;;;;5055068;28;45479;-68
2022/09/15 12:43:54;;;;;;;;;8.33;7.00;;;;;;;;5042032;28;45322;-68
2022/09/15 12:46:20;;;;;;;;;6.00;4.33;;;;;;;;5041387;28;45330;-69
2022/09/15 12:48:45;;;;;;;;;5.33;4.00;;;;;;;;5028843;28;47465;-69
2022/09/15 12:51:11;;;;;;;;;6.67;5.00;;;;;;;;5041626;28;45473;-69
2022/09/15 12:53:44;;;;;;;;;6.33;5.00;;;;;;;;5035891;28;45513;-69
2022/09/15 12:56:20;;;;;;;;;3.33;3.33;;;;;;;;5023136;28;45355;-69
2022/09/15 12:58:46;;;;;;;;;6.33;6.33;;;;;;;;5037448;28;45403;-69
2022/09/15 13:01:12;;;;;;;;;4.33;4.33;;;;;;;;5039759;28;45358;-69
2022/09/15 13:03:37;;;;;;;;;4.33;4.33;;;;;;;;5018006;28;45435;-68
2022/09/15 13:06:11;;;;;;;;;6.00;4.67;;;;;;;;5022132;28;45303;-68
2022/09/15 13:08:36;;;;;;;;;3.00;3.00;;;;;;;;5037477;28;45669;-68
2022/09/15 13:11:01;;;;;;;;;5.33;5.33;;;;;;;;5040637;28;45264;-68
2022/09/15 13:13:29;;;;;;;;;5.00;5.00;;;;;;;;5038636;28;45521;-68
2022/09/15 13:15:56;;;;;;;;;6.00;6.00;;;;;;;;5041648;28;45402;-68
2022/09/15 13:18:22;;;;;;;;;4.33;4.33;;;;;;;;5039522;28;46401;-68
2022/09/15 13:20:51;;;;;;;;;7.33;7.33;;;;;;;;5056937;28;45523;-68
2022/09/15 13:23:22;;;;;;;;;7.00;7.00;;;;;;;;5038546;28;45572;-68
2022/09/15 13:25:48;;;;;;;;;10.00;8.67;;;;;;;;5042409;28;45352;-68
2022/09/15 13:28:14;;;;;;;;;7.00;7.00;;;;;;;;5016024;28;47223;-70
2022/09/15 13:31:12;;;;;;;;;11.33;8.00;;;;;;;;5041649;28;45260;-68
2022/09/15 13:33:59;;;;;;;;;8.67;8.00;;;;;;;;5007235;28;45432;-68
2022/09/15 13:36:51;;;;;;;;;10.67;9.00;;;;;;;;5055012;28;45291;-68
2022/09/15 13:39:22;;;;;;;;;7.00;7.00;;;;;;;;5021393;28;45802;-68
2022/09/15 13:42:06;;;;;;;;;9.33;9.00;;;;;;;;5038146;28;45464;-68
2022/09/15 13:44:32;;;;;;;;;7.67;6.67;;;;;;;;5033479;28;45359;-68
2022/09/15 13:47:15;;;;;;;;;9.00;9.00;;;;;;;;5038397;28;45370;-68
2022/09/15 13:49:52;;;;;;;;;9.00;9.00;;;;;;;;5039013;28;46682;-69
2022/09/15 13:52:17;;;;;;;;;7.67;7.67;;;;;;;;5041897;28;45354;-68
2022/09/15 13:55:01;;;;;;;;;10.00;8.00;;;;;;;;5044716;28;45558;-68
2022/09/15 13:57:26;;;;;;;;;11.33;10.00;;;;;;;;5027806;28;45559;-68
2022/09/15 13:59:52;;;;;;;;;8.00;8.00;;;;;;;;5044249;28;45485;-68
2022/09/15 14:02:18;;;;;;;;;13.00;9.33;;;;;;;;5042395;28;45310;-68
2022/09/15 14:04:48;;;;;;;;;10.00;8.00;;;;;;;;5026951;28;45295;-68
2022/09/15 14:07:20;;;;;;;;;11.33;10.00;;;;;;;;5039174;28;45521;-69
2022/09/15 14:09:47;;;;;;;;;15.00;9.00;;;;;;;;5022048;28;45474;-68
2022/09/15 14:12:15;;;;;;;;;12.00;12.00;;;;;;;;5029513;28;45343;-68
2022/09/15 14:14:45;;;;;;;;;12.33;12.33;;;;;;;;5044344;28;45303;-69
2022/09/15 14:17:18;;;;;;;;;12.67;12.67;;;;;;;;5039587;28;45512;-68
2022/09/15 14:19:46;;;;;;;;;12.00;11.67;;;;;;;;5040973;28;45447;-68
2022/09/15 14:22:24;;;;;;;;;12.00;10.67;;;;;;;;5037864;28;45279;-68
2022/09/15 14:24:50;;;;;;;;;15.75;15.50;;;;;;;;5025001;28;45343;-68
2022/09/15 14:27:21;;;;;;;;;16.00;12.33;;;;;;;;5041754;28;45515;-68
2022/09/15 14:29:49;;;;;;;;;15.33;12.00;;;;;;;;5042724;28;46340;-69
2022/09/15 14:32:15;;;;;;;;;14.67;14.67;;;;;;;;5023067;28;45417;-69
2022/09/15 14:34:41;;;;;;;;;14.33;13.33;;;;;;;;5041236;28;45467;-68
2022/09/15 14:37:18;;;;;;;;;13.00;13.00;;;;;;;;5054367;28;45413;-68